Terminal Aerodrome Forecast
Issued by NWS Houston/Galveston, TX

Home | Current Version | Previous Version | Text Only | Print | Product List | Glossary On
Versions: 1 2 3 4 5 6 7 8 9 10 11 12 13 14 15 16 17 18 19 20 21 22 23 24
000
FTUS44 KHGX 212326
TAFGLS
TAF
KGLS 212326Z 2200/2224 12012KT 1SM BR BKN002 BKN012
      TEMPO 2200/2204 1/2SM FG OVC001
     FM220600 17010KT 2SM BR VCSH BKN004 OVC012
     FM221100 24007KT 2SM BR VCTS SCT005 BKN015 BKN025CB
     FM221300 29008KT 6SM BR SCT020 BKN035
     FM221500 31010KT P6SM BKN050
     FM221800 32015G23KT P6SM SCT250=

USA.gov is the U.S. government's official web portal to all federal, state and local government web resources and services.